To NAV CANADA Home Page Login to a new session Search on AWWS site Disclaimer Vers la page française équivalente Tips FAQ What's new on the site To the Forecasts and Observations / NOTAM section To "File a Flight Plan" website Publications and other links Update of the User's profile FIC Telephone Numbers My Weather Data Folder Route Weather Data Regional Weather Data Local Weather Data To the Forecasts and Observations / NOTAM section
Request Generated 11/13/2018 at 18:20:35 UTC . Weather information available at that time is displayed.

METAR/TAF

EARLTON/EARLTON (TIMISKAMING REGIONAL)/ON    (show WxCam)

METAR CYXR 131800Z AUTO 31012G19KT 9SM SCT040 OVC050 M10/M15 A3011 RMK ICG INTMT SLP217=
METAR CYXR 131700Z AUTO 33010KT 9SM BKN039 BKN049 M10/M17 A3014 RMK ICG SLP226=
METAR CYXR 131600Z AUTO 31006KT 290V010 9SM OVC049 M11/M17 A3016 RMK ICG SLP234=

TAF CYXR 131738Z 1318/1401 33010KT P6SM BKN030 TEMPO 1318/1401 5SM
-SN BKN020
RMK FCST BASED ON AUTO OBS. NXT FCST WILL BE ISSUED AT 141245Z=
Your time UTC time
Weather data provided by Environment Canada and NAV CANADA